createdAt,value
2023-04-02T00:00:15.964Z,55.05
2023-04-02T00:02:43.018Z,55.09
2023-04-02T00:05:10.107Z,55.02
2023-04-02T00:07:37.123Z,55.09
2023-04-02T00:10:04.203Z,55.16
2023-04-02T00:12:31.235Z,55.08
2023-04-02T00:14:58.268Z,55.07
2023-04-02T00:17:25.320Z,55.28
2023-04-02T00:19:52.409Z,55.19
2023-04-02T00:22:19.476Z,55.09
2023-04-02T00:24:46.533Z,55.25
2023-04-02T00:27:13.617Z,55.16
2023-04-02T00:29:40.650Z,55.20
2023-04-02T00:32:07.740Z,55.15
2023-04-02T00:34:41.123Z,55.08
2023-04-02T00:37:08.204Z,55.14
2023-04-02T00:39:35.264Z,55.25
2023-04-02T00:42:02.282Z,55.13
2023-04-02T00:44:29.326Z,55.12
2023-04-02T00:46:56.382Z,55.06
2023-04-02T00:49:23.885Z,55.11
2023-04-02T00:51:52.415Z,55.12
2023-04-02T00:54:19.500Z,55.10
2023-04-02T00:56:46.757Z,55.08
2023-04-02T00:59:13.871Z,54.95
2023-04-02T01:01:40.932Z,54.92
2023-04-02T01:04:08.062Z,54.96
2023-04-02T01:06:35.250Z,54.80
2023-04-02T01:09:02.369Z,54.95
2023-04-02T01:11:29.454Z,54.85
2023-04-02T01:13:56.471Z,54.86
2023-04-02T01:16:26.767Z,54.80
2023-04-02T01:18:53.902Z,54.68
2023-04-02T01:21:28.259Z,54.71
2023-04-02T01:26:40.125Z,54.72
2023-04-02T01:29:08.161Z,54.67
2023-04-02T01:31:35.222Z,54.80
2023-04-02T01:34:02.301Z,54.79
2023-04-02T01:36:29.351Z,54.82
2023-04-02T01:38:56.417Z,54.73
2023-04-02T01:41:23.454Z,54.69
2023-04-02T01:43:50.520Z,54.70
2023-04-02T01:46:17.558Z,54.63
2023-04-02T01:48:44.636Z,54.59
2023-04-02T01:51:11.650Z,54.33
2023-04-02T01:53:38.815Z,54.37
2023-04-02T01:56:15.252Z,54.15
2023-04-02T01:58:45.570Z,54.18
2023-04-02T02:01:12.650Z,54.10
2023-04-02T02:03:40.178Z,54.05
2023-04-02T02:06:07.194Z,54.06
2023-04-02T02:08:34.233Z,53.87
2023-04-02T02:11:01.526Z,54.02
2023-04-02T02:13:28.617Z,53.92
2023-04-02T02:15:55.925Z,54.12
2023-04-02T02:18:22.987Z,54.13
2023-04-02T02:20:50.006Z,54.10
2023-04-02T02:23:17.040Z,53.94
2023-04-02T02:25:44.077Z,53.84
2023-04-02T02:28:11.118Z,53.84
2023-04-02T02:30:38.188Z,53.94
2023-04-02T02:33:05.282Z,53.97
2023-04-02T02:35:32.475Z,53.98
2023-04-02T02:37:59.567Z,54.12
2023-04-02T02:40:26.592Z,54.07
2023-04-02T02:42:53.697Z,54.12
2023-04-02T02:45:20.804Z,54.05
2023-04-02T02:47:47.871Z,53.93
2023-04-02T02:50:14.981Z,53.93
2023-04-02T02:52:42.071Z,54.04
2023-04-02T02:55:10.463Z,54.16
2023-04-02T02:57:40.250Z,54.34
2023-04-02T03:00:07.261Z,54.47
2023-04-02T03:02:35.428Z,54.73
2023-04-02T03:05:02.564Z,54.70
2023-04-02T03:07:29.670Z,54.97
2023-04-02T03:09:57.252Z,54.95
2023-04-02T03:12:24.346Z,54.89
2023-04-02T03:17:36.967Z,55.01
2023-04-02T03:20:04.034Z,54.96
2023-04-02T03:22:31.159Z,55.03
2023-04-02T03:24:58.265Z,55.22
2023-04-02T03:27:25.316Z,55.24
2023-04-02T03:29:52.388Z,55.30
2023-04-02T03:32:27.148Z,55.22
2023-04-02T03:34:54.205Z,55.21
2023-04-02T03:37:21.290Z,55.24
2023-04-02T03:39:54.512Z,55.28
2023-04-02T03:42:21.606Z,55.31
2023-04-02T03:44:48.766Z,55.29
2023-04-02T03:47:20.323Z,55.43
2023-04-02T03:49:47.732Z,55.10
2023-04-02T03:52:14.992Z,55.12
2023-04-02T03:54:53.877Z,55.18
2023-04-02T04:00:11.714Z,55.09
2023-04-02T04:02:43.334Z,55.13
2023-04-02T04:05:10.709Z,55.21
2023-04-02T04:07:37.821Z,55.43
2023-04-02T04:10:12.302Z,55.53
2023-04-02T04:12:39.366Z,55.65
2023-04-02T04:15:06.744Z,55.79
2023-04-02T04:17:33.769Z,55.99
2023-04-02T04:20:00.843Z,56.14
2023-04-02T04:22:27.829Z,56.12
2023-04-02T04:24:54.934Z,56.18
2023-04-02T04:27:21.965Z,56.22
2023-04-02T04:29:49.053Z,56.23
2023-04-02T04:32:16.143Z,56.42
2023-04-02T04:34:43.277Z,56.49
2023-04-02T04:37:10.313Z,56.55
2023-04-02T04:39:37.379Z,56.56
2023-04-02T04:42:04.643Z,56.82
2023-04-02T04:44:31.727Z,56.70
2023-04-02T04:46:58.951Z,56.69
2023-04-02T04:49:26.001Z,56.80
2023-04-02T04:51:55.765Z,56.78
2023-04-02T04:54:25.299Z,56.78
2023-04-02T04:56:52.332Z,56.69
2023-04-02T04:59:19.406Z,56.52
2023-04-02T05:01:46.434Z,56.33
2023-04-02T05:04:13.538Z,56.30
2023-04-02T05:06:42.858Z,56.33
2023-04-02T05:09:09.902Z,56.47
2023-04-02T05:11:36.941Z,56.50
2023-04-02T05:14:03.974Z,56.41
2023-04-02T05:16:31.037Z,56.50
2023-04-02T05:18:58.198Z,56.51
2023-04-02T05:21:25.234Z,56.47
2023-04-02T05:23:52.258Z,56.61
2023-04-02T05:26:19.273Z,56.70
2023-04-02T05:28:46.275Z,56.78
2023-04-02T05:31:13.323Z,56.89
2023-04-02T05:33:40.466Z,56.91
2023-04-02T05:36:07.609Z,56.99
2023-04-02T05:38:34.717Z,56.82
2023-04-02T05:41:01.791Z,56.94
2023-04-02T05:43:28.817Z,56.88
2023-04-02T05:45:55.941Z,57.03
2023-04-02T05:48:22.970Z,57.14
2023-04-02T05:50:49.979Z,57.04
2023-04-02T05:53:16.996Z,57.03
2023-04-02T05:55:45.392Z,57.02
2023-04-02T06:00:42.332Z,57.05
2023-04-02T06:03:09.434Z,57.27
2023-04-02T06:05:36.786Z,57.09
2023-04-02T06:08:04.000Z,57.32
2023-04-02T06:10:31.013Z,57.25
2023-04-02T06:12:58.086Z,57.32
2023-04-02T06:15:25.127Z,57.57
2023-04-02T06:17:52.192Z,57.49
2023-04-02T06:20:19.351Z,57.61
2023-04-02T06:22:46.457Z,57.57
2023-04-02T06:25:13.766Z,57.54
2023-04-02T06:27:40.842Z,57.62
2023-04-02T06:30:07.891Z,57.76
2023-04-02T06:32:34.933Z,57.68
2023-04-02T06:35:01.981Z,57.64
2023-04-02T06:37:28.961Z,57.65
2023-04-02T06:39:55.999Z,57.74
2023-04-02T06:42:23.014Z,57.74
2023-04-02T06:44:50.090Z,57.68
2023-04-02T06:47:17.094Z,57.78
2023-04-02T06:49:44.188Z,57.69
2023-04-02T06:52:11.223Z,57.85
2023-04-02T06:54:38.251Z,57.84
2023-04-02T06:57:05.291Z,57.96
2023-04-02T06:59:32.367Z,57.94
2023-04-02T07:01:59.406Z,58.03
2023-04-02T07:04:26.735Z,58.08
2023-04-02T07:06:53.795Z,58.05
2023-04-02T07:09:20.872Z,58.27
2023-04-02T07:11:47.960Z,58.24
2023-04-02T07:14:14.987Z,58.35
2023-04-02T07:16:42.051Z,58.35
2023-04-02T07:19:09.116Z,58.60
2023-04-02T07:21:36.234Z,58.67
2023-04-02T07:24:03.334Z,58.76
2023-04-02T07:26:30.657Z,58.90
2023-04-02T07:28:58.002Z,59.04
2023-04-02T07:31:25.073Z,59.20
2023-04-02T07:33:52.139Z,59.20
2023-04-02T07:36:19.194Z,59.40
2023-04-02T07:38:46.275Z,59.45
2023-04-02T07:41:13.317Z,59.41
2023-04-02T07:43:40.336Z,59.43
2023-04-02T07:46:07.527Z,59.32
2023-04-02T07:48:34.519Z,59.29
2023-04-02T07:51:01.775Z,59.23
2023-04-02T07:53:28.956Z,59.42
2023-04-02T07:55:55.997Z,59.24
2023-04-02T07:58:23.017Z,59.26
2023-04-02T08:06:50.880Z,58.99
2023-04-02T08:09:17.906Z,58.99
2023-04-02T08:11:44.929Z,59.03
2023-04-02T08:14:11.910Z,59.01
2023-04-02T08:16:38.951Z,58.96
2023-04-02T08:19:05.988Z,59.09
2023-04-02T08:21:32.976Z,59.08
2023-04-02T08:24:00.025Z,59.02
2023-04-02T08:26:33.131Z,59.20
2023-04-02T08:29:00.332Z,59.17
2023-04-02T08:31:27.458Z,59.19
2023-04-02T08:33:54.655Z,59.15
2023-04-02T08:36:21.857Z,59.21
2023-04-02T08:38:49.106Z,59.28
2023-04-02T08:41:16.168Z,59.07
2023-04-02T08:43:43.165Z,59.20
2023-04-02T08:46:10.229Z,59.24
2023-04-02T08:48:37.490Z,59.39
2023-04-02T08:51:04.566Z,59.29
2023-04-02T08:53:31.566Z,59.30
2023-04-02T08:55:58.642Z,59.40
2023-04-02T08:58:25.693Z,59.41
2023-04-02T09:00:52.830Z,59.38
2023-04-02T09:03:19.944Z,59.42
2023-04-02T09:05:46.996Z,59.55
2023-04-02T09:08:14.058Z,59.63
2023-04-02T09:10:41.089Z,59.51
2023-04-02T09:13:08.170Z,59.40
2023-04-02T09:15:35.287Z,59.26
2023-04-02T09:18:03.263Z,59.29
2023-04-02T09:20:30.317Z,58.97
2023-04-02T09:22:57.334Z,58.96
2023-04-02T09:25:24.387Z,58.78
2023-04-02T09:27:53.674Z,58.64
2023-04-02T09:30:20.667Z,58.50
2023-04-02T09:32:47.788Z,58.65
2023-04-02T09:35:24.805Z,58.60
2023-04-02T09:37:52.963Z,58.31
2023-04-02T09:40:20.012Z,58.27
2023-04-02T09:42:47.006Z,58.20
2023-04-02T09:45:14.036Z,58.19
2023-04-02T09:47:42.416Z,58.24
2023-04-02T09:50:09.597Z,58.35
2023-04-02T09:52:36.679Z,58.15
2023-04-02T09:55:03.678Z,58.24
2023-04-02T09:57:30.776Z,58.06
2023-04-02T09:59:57.819Z,58.28
2023-04-02T10:02:24.932Z,58.32
2023-04-02T10:04:51.969Z,58.13
2023-04-02T10:07:18.985Z,58.24
2023-04-02T10:09:46.029Z,58.44
2023-04-02T10:12:13.074Z,58.51
2023-04-02T10:14:40.122Z,58.42
2023-04-02T10:17:07.134Z,58.20
2023-04-02T10:19:34.144Z,58.21
2023-04-02T10:22:01.232Z,57.85
2023-04-02T10:24:28.290Z,57.60
2023-04-02T10:26:55.715Z,57.44
2023-04-02T10:29:22.721Z,57.12
2023-04-02T10:31:49.750Z,56.34
2023-04-02T10:34:16.767Z,56.43
2023-04-02T10:36:43.805Z,56.18
2023-04-02T10:39:10.814Z,56.21
2023-04-02T10:41:37.791Z,56.11
2023-04-02T10:44:16.643Z,56.13
2023-04-02T10:46:46.833Z,55.96
2023-04-02T10:49:13.921Z,56.00
2023-04-02T10:51:40.980Z,55.87
2023-04-02T10:54:08.030Z,55.69
2023-04-02T10:56:48.068Z,55.51
2023-04-02T10:59:17.485Z,55.35
2023-04-02T11:01:44.562Z,55.46
2023-04-02T11:04:12.086Z,55.36
2023-04-02T11:06:41.156Z,55.33
2023-04-02T11:09:08.197Z,55.42
2023-04-02T11:11:35.236Z,55.28
2023-04-02T11:14:02.238Z,54.84
2023-04-02T11:16:29.314Z,54.92
2023-04-02T11:18:56.379Z,54.79
2023-04-02T11:21:23.412Z,54.73
2023-04-02T11:23:50.425Z,54.61
2023-04-02T11:26:17.440Z,54.51
2023-04-02T11:28:44.424Z,54.71
2023-04-02T11:31:11.481Z,54.36
2023-04-02T11:33:41.266Z,54.48
2023-04-02T11:36:10.415Z,54.24
2023-04-02T11:38:37.530Z,54.28
2023-04-02T11:41:04.577Z,54.21
2023-04-02T11:43:31.593Z,54.45
2023-04-02T11:45:58.779Z,54.31
2023-04-02T11:48:25.911Z,54.20
2023-04-02T11:50:53.061Z,54.20
2023-04-02T11:53:20.142Z,54.14
2023-04-02T11:55:47.153Z,54.21
2023-04-02T11:58:14.159Z,54.05
2023-04-02T12:00:41.143Z,54.12
2023-04-02T12:03:08.262Z,54.03
2023-04-02T12:05:35.572Z,54.09
2023-04-02T12:08:02.728Z,53.91
2023-04-02T12:10:29.750Z,53.90
2023-04-02T12:12:56.766Z,53.73
2023-04-02T12:15:23.785Z,53.78
2023-04-02T12:17:50.849Z,53.61
2023-04-02T12:20:17.958Z,53.51
2023-04-02T12:22:45.032Z,53.43
2023-04-02T12:25:12.063Z,53.52
2023-04-02T12:27:39.219Z,53.48
2023-04-02T12:30:06.229Z,53.50
2023-04-02T12:32:33.280Z,53.30
2023-04-02T12:35:00.330Z,53.29
2023-04-02T12:37:27.320Z,53.08
2023-04-02T12:39:54.372Z,53.37
2023-04-02T12:42:21.403Z,53.16
2023-04-02T12:44:48.404Z,53.19
2023-04-02T12:47:15.400Z,53.02
2023-04-02T12:49:42.463Z,52.93
2023-04-02T12:52:09.509Z,52.96
2023-04-02T12:54:36.586Z,52.85
2023-04-02T12:57:06.625Z,52.85
2023-04-02T12:59:33.675Z,52.56
2023-04-02T13:02:02.054Z,52.81
2023-04-02T13:04:29.186Z,52.83
2023-04-02T13:06:56.179Z,52.56
2023-04-02T13:09:23.181Z,52.46
2023-04-02T13:11:50.247Z,52.43
2023-04-02T13:14:17.267Z,52.51
2023-04-02T13:16:44.275Z,52.38
2023-04-02T13:19:11.337Z,52.13
2023-04-02T13:21:38.368Z,52.27
2023-04-02T13:24:05.373Z,52.45
2023-04-02T13:26:32.370Z,52.15
2023-04-02T13:28:59.425Z,52.34
2023-04-02T13:31:26.470Z,52.17
2023-04-02T13:33:53.539Z,51.99
2023-04-02T13:36:20.528Z,52.00
2023-04-02T13:38:47.679Z,51.75
2023-04-02T13:41:14.677Z,51.88
2023-04-02T13:43:41.706Z,51.67
2023-04-02T13:46:08.748Z,51.68
2023-04-02T13:48:35.846Z,51.77
2023-04-02T13:51:02.890Z,51.73
2023-04-02T13:53:29.953Z,51.80
2023-04-02T13:55:56.961Z,51.82
2023-04-02T13:58:23.983Z,51.61
2023-04-02T14:00:51.116Z,52.00
2023-04-02T14:03:18.407Z,51.76
2023-04-02T14:05:45.419Z,51.82
2023-04-02T14:08:12.505Z,52.03
2023-04-02T14:10:39.563Z,51.67
2023-04-02T14:13:08.719Z,51.59
2023-04-02T14:15:35.873Z,51.22
2023-04-02T14:18:03.164Z,51.10
2023-04-02T14:20:30.193Z,51.10
2023-04-02T14:22:57.219Z,51.17
2023-04-02T14:25:24.262Z,50.81
2023-04-02T14:27:51.308Z,50.74
2023-04-02T14:30:19.646Z,50.77
2023-04-02T14:32:46.775Z,50.38
2023-04-02T14:35:13.805Z,49.96
2023-04-02T14:37:40.843Z,50.13
2023-04-02T14:40:07.861Z,49.92
2023-04-02T14:42:34.915Z,49.93
2023-04-02T14:45:01.943Z,49.84
2023-04-02T14:47:29.055Z,49.87
2023-04-02T14:49:56.145Z,49.94
2023-04-02T14:52:23.175Z,49.57
2023-04-02T14:54:50.211Z,49.44
2023-04-02T14:57:17.255Z,49.33
2023-04-02T14:59:44.300Z,48.90
2023-04-02T15:02:11.551Z,48.84
2023-04-02T15:04:38.553Z,48.27
2023-04-02T15:07:05.537Z,47.92
2023-04-02T15:09:32.585Z,47.74
2023-04-02T15:11:59.611Z,47.48
2023-04-02T15:14:26.674Z,47.14
2023-04-02T15:16:53.672Z,47.16
2023-04-02T15:19:20.715Z,47.05
2023-04-02T15:21:57.134Z,46.64
2023-04-02T15:24:26.529Z,46.40
2023-04-02T15:26:53.572Z,46.22
2023-04-02T15:29:28.956Z,46.14
2023-04-02T15:31:56.577Z,45.76
2023-04-02T15:34:23.641Z,45.58
2023-04-02T15:36:50.912Z,45.11
2023-04-02T15:39:17.967Z,44.96
2023-04-02T15:41:45.018Z,44.96
2023-04-02T15:44:12.117Z,44.84
2023-04-02T15:46:39.235Z,44.92
2023-04-02T15:49:06.282Z,44.52
2023-04-02T15:51:33.343Z,44.23
2023-04-02T15:54:00.413Z,44.03
2023-04-02T15:56:27.429Z,44.05
2023-04-02T15:58:54.464Z,43.68
2023-04-02T16:01:21.611Z,43.86
2023-04-02T16:03:48.786Z,43.54
2023-04-02T16:06:15.854Z,43.81
2023-04-02T16:08:42.894Z,43.33
2023-04-02T16:11:09.938Z,43.09
2023-04-02T16:13:36.978Z,43.23
2023-04-02T16:16:04.061Z,42.90
2023-04-02T16:18:31.136Z,42.96
2023-04-02T16:20:58.248Z,42.64
2023-04-02T16:23:25.261Z,42.93
2023-04-02T16:25:52.303Z,42.48
2023-04-02T16:28:19.387Z,42.24
2023-04-02T16:30:46.441Z,42.26
2023-04-02T16:33:13.502Z,42.52
2023-04-02T16:35:43.441Z,42.18
2023-04-02T16:38:10.855Z,42.20
2023-04-02T16:40:39.302Z,41.90
2023-04-02T16:43:06.369Z,41.50
2023-04-02T16:45:33.541Z,41.16
2023-04-02T16:48:00.637Z,41.40
2023-04-02T16:50:27.732Z,41.63
2023-04-02T16:52:54.785Z,41.36
2023-04-02T16:55:21.865Z,41.46
2023-04-02T16:57:48.892Z,41.27
2023-04-02T17:00:15.884Z,41.26
2023-04-02T17:02:43.052Z,41.14
2023-04-02T17:05:10.170Z,40.97
2023-04-02T17:07:37.181Z,40.72
2023-04-02T17:10:04.197Z,40.60
2023-04-02T17:12:31.237Z,40.55
2023-04-02T17:14:58.274Z,40.60
2023-04-02T17:17:25.363Z,40.72
2023-04-02T17:19:52.477Z,40.69
2023-04-02T17:22:19.612Z,40.59
2023-04-02T17:24:46.669Z,40.43
2023-04-02T17:27:13.732Z,40.53
2023-04-02T17:29:41.079Z,40.38
2023-04-02T17:32:08.112Z,40.43
2023-04-02T17:34:35.198Z,40.22
2023-04-02T17:37:02.219Z,40.59
2023-04-02T17:39:29.253Z,40.41
2023-04-02T17:41:56.316Z,40.36
2023-04-02T17:44:23.338Z,40.40
2023-04-02T17:46:50.435Z,40.46
2023-04-02T17:49:17.449Z,40.34
2023-04-02T17:51:44.488Z,40.30
2023-04-02T17:54:11.520Z,39.75
2023-04-02T17:56:39.596Z,40.09
2023-04-02T17:59:09.112Z,40.32
2023-04-02T18:01:36.147Z,40.27
2023-04-02T18:04:03.232Z,40.38
2023-04-02T18:06:30.275Z,40.16
2023-04-02T18:08:57.330Z,40.06
2023-04-02T18:11:24.375Z,40.14
2023-04-02T18:13:51.467Z,39.99
2023-04-02T18:16:18.518Z,40.04
2023-04-02T18:18:45.596Z,40.18
2023-04-02T18:21:12.750Z,40.08
2023-04-02T18:23:39.746Z,40.14
2023-04-02T18:26:06.826Z,39.94
2023-04-02T18:28:33.904Z,40.12
2023-04-02T18:31:00.951Z,39.97
2023-04-02T18:33:27.979Z,39.82
2023-04-02T18:35:55.154Z,39.78
2023-04-02T18:38:22.481Z,39.76
2023-04-02T18:40:49.489Z,39.91
2023-04-02T18:43:16.570Z,39.63
2023-04-02T18:45:43.622Z,39.90
2023-04-02T18:48:10.724Z,39.68
2023-04-02T18:50:37.919Z,39.50
2023-04-02T18:53:05.248Z,39.42
2023-04-02T18:55:32.285Z,39.41
2023-04-02T18:57:59.344Z,39.40
2023-04-02T19:00:26.398Z,39.56
2023-04-02T19:02:53.523Z,39.48
2023-04-02T19:05:20.592Z,39.38
2023-04-02T19:07:47.618Z,39.53
2023-04-02T19:10:14.670Z,39.55
2023-04-02T19:12:41.709Z,39.54
2023-04-02T19:15:08.774Z,39.64
2023-04-02T19:17:35.912Z,39.65
2023-04-02T19:20:02.985Z,39.56
2023-04-02T19:22:30.004Z,39.43
2023-04-02T19:24:57.076Z,39.52
2023-04-02T19:27:24.131Z,39.45
2023-04-02T19:29:51.163Z,39.62
2023-04-02T19:32:18.219Z,39.46
2023-04-02T19:34:45.225Z,39.40
2023-04-02T19:37:12.328Z,39.60
2023-04-02T19:39:39.346Z,39.42
2023-04-02T19:42:07.117Z,39.55
2023-04-02T19:44:34.640Z,39.34
2023-04-02T19:47:01.725Z,39.48
2023-04-02T19:49:28.740Z,39.37
2023-04-02T19:51:55.796Z,39.47
2023-04-02T19:54:22.807Z,39.59
2023-04-02T19:56:49.852Z,39.37
2023-04-02T19:59:18.391Z,39.58
2023-04-02T20:01:45.879Z,39.38
2023-04-02T20:04:12.914Z,39.31
2023-04-02T20:06:40.022Z,39.19
2023-04-02T20:09:07.013Z,39.22
2023-04-02T20:11:34.056Z,39.32
2023-04-02T20:14:01.107Z,39.17
2023-04-02T20:16:28.155Z,39.36
2023-04-02T20:18:55.243Z,39.29
2023-04-02T20:21:22.257Z,39.30
2023-04-02T20:23:49.332Z,39.39
2023-04-02T20:26:16.342Z,39.43
2023-04-02T20:28:43.379Z,39.38
2023-04-02T20:31:10.471Z,39.60
2023-04-02T20:33:37.591Z,39.71
2023-04-02T20:36:04.725Z,40.07
2023-04-02T20:38:32.171Z,40.33
2023-04-02T20:40:59.289Z,40.38
2023-04-02T20:43:26.340Z,40.54
2023-04-02T20:45:53.405Z,40.94
2023-04-02T20:48:20.475Z,41.16
2023-04-02T20:50:47.472Z,41.16
2023-04-02T20:53:14.877Z,41.39
2023-04-02T20:55:41.918Z,41.64
2023-04-02T20:58:09.022Z,41.73
2023-04-02T21:00:36.317Z,41.87
2023-04-02T21:03:03.610Z,41.94
2023-04-02T21:05:30.700Z,42.20
2023-04-02T21:07:57.786Z,42.33
2023-04-02T21:10:24.794Z,42.03
2023-04-02T21:12:51.825Z,42.26
2023-04-02T21:15:18.898Z,42.43
2023-04-02T21:17:45.987Z,42.46
2023-04-02T21:20:13.062Z,42.79
2023-04-02T21:22:40.092Z,42.90
2023-04-02T21:25:07.145Z,42.92
2023-04-02T21:27:34.163Z,42.94
2023-04-02T21:30:01.193Z,43.00
2023-04-02T21:32:28.283Z,43.09
2023-04-02T21:34:55.328Z,43.28
2023-04-02T21:37:22.366Z,43.33
2023-04-02T21:39:49.458Z,43.35
2023-04-02T21:42:16.472Z,43.43
2023-04-02T21:44:43.481Z,43.71
2023-04-02T21:47:10.493Z,43.64
2023-04-02T21:49:37.539Z,43.84
2023-04-02T21:52:04.553Z,43.95
2023-04-02T21:54:31.589Z,43.93
2023-04-02T21:56:58.618Z,43.97
2023-04-02T21:59:25.618Z,44.13
2023-04-02T22:01:52.843Z,44.20
2023-04-02T22:04:20.011Z,44.33
2023-04-02T22:06:47.078Z,44.35
2023-04-02T22:09:14.093Z,44.39
2023-04-02T22:11:41.146Z,44.27
2023-04-02T22:14:08.188Z,44.39
2023-04-02T22:16:35.301Z,44.60
2023-04-02T22:19:02.375Z,44.40
2023-04-02T22:21:29.397Z,44.60
2023-04-02T22:23:56.429Z,44.48
2023-04-02T22:26:23.513Z,44.57
2023-04-02T22:28:50.518Z,44.71
2023-04-02T22:31:17.602Z,44.59
2023-04-02T22:33:44.642Z,45.03
2023-04-02T22:36:11.735Z,44.81
2023-04-02T22:38:38.809Z,44.99
2023-04-02T22:41:05.802Z,45.09
2023-04-02T22:43:32.824Z,44.90
2023-04-02T22:45:59.912Z,44.95
2023-04-02T22:48:26.988Z,44.93
2023-04-02T22:50:54.018Z,45.11
2023-04-02T22:53:21.051Z,45.10
2023-04-02T22:55:48.081Z,44.93
2023-04-02T22:58:15.118Z,45.21
2023-04-02T23:00:42.161Z,45.09
2023-04-02T23:03:09.251Z,45.18
2023-04-02T23:05:36.294Z,45.13
2023-04-02T23:08:03.275Z,45.43
2023-04-02T23:10:30.757Z,45.32
2023-04-02T23:12:57.998Z,45.38
2023-04-02T23:15:25.033Z,45.28
2023-04-02T23:17:54.087Z,45.51
2023-04-02T23:20:21.152Z,45.67
2023-04-02T23:22:48.166Z,45.67
2023-04-02T23:25:15.164Z,45.59
2023-04-02T23:27:42.173Z,45.71
2023-04-02T23:30:09.205Z,45.50
2023-04-02T23:32:36.247Z,45.54
2023-04-02T23:35:03.276Z,45.59
2023-04-02T23:37:30.296Z,45.79
2023-04-02T23:39:57.313Z,45.86
2023-04-02T23:42:25.261Z,45.85
2023-04-02T23:44:53.531Z,45.87
2023-04-02T23:47:20.580Z,45.99
2023-04-02T23:49:47.668Z,45.99
2023-04-02T23:52:14.692Z,45.86
2023-04-02T23:54:41.709Z,45.86
2023-04-02T23:57:08.820Z,45.84
2023-04-02T23:59:36.289Z,46.08
